sensor_id;sensor_type;location;lat;lon;timestamp;P1;durP1;ratioP1;P2;durP2;ratioP2
20976;SDS011;10647;51.016;3.720;2022-09-06T00:02:21;11.15;;;9.03;;
20976;SDS011;10647;51.016;3.720;2022-09-06T00:04:54;10.72;;;8.65;;
20976;SDS011;10647;51.016;3.720;2022-09-06T00:07:28;13.85;;;9.00;;
20976;SDS011;10647;51.016;3.720;2022-09-06T00:10:01;11.85;;;9.23;;
20976;SDS011;10647;51.016;3.720;2022-09-06T00:12:29;13.55;;;9.25;;
20976;SDS011;10647;51.016;3.720;2022-09-06T00:15:03;19.45;;;10.13;;
20976;SDS011;10647;51.016;3.720;2022-09-06T00:17:32;16.95;;;10.60;;
20976;SDS011;10647;51.016;3.720;2022-09-06T00:22:31;16.30;;;10.20;;
20976;SDS011;10647;51.016;3.720;2022-09-06T00:24:59;15.85;;;10.78;;
20976;SDS011;10647;51.016;3.720;2022-09-06T00:27:27;15.98;;;11.08;;
20976;SDS011;10647;51.016;3.720;2022-09-06T00:29:55;16.02;;;11.30;;
20976;SDS011;10647;51.016;3.720;2022-09-06T00:32:22;15.70;;;10.70;;
20976;SDS011;10647;51.016;3.720;2022-09-06T00:34:51;13.00;;;10.08;;
20976;SDS011;10647;51.016;3.720;2022-09-06T00:37:19;14.75;;;8.95;;
20976;SDS011;10647;51.016;3.720;2022-09-06T00:39:46;14.33;;;10.13;;
20976;SDS011;10647;51.016;3.720;2022-09-06T00:42:15;14.28;;;9.80;;
20976;SDS011;10647;51.016;3.720;2022-09-06T00:44:43;14.05;;;9.93;;
20976;SDS011;10647;51.016;3.720;2022-09-06T00:47:10;16.15;;;9.35;;
20976;SDS011;10647;51.016;3.720;2022-09-06T00:49:43;11.35;;;9.45;;
20976;SDS011;10647;51.016;3.720;2022-09-06T00:52:12;14.07;;;9.45;;
20976;SDS011;10647;51.016;3.720;2022-09-06T00:54:49;11.22;;;9.30;;
20976;SDS011;10647;51.016;3.720;2022-09-06T00:57:17;14.03;;;9.55;;
20976;SDS011;10647;51.016;3.720;2022-09-06T00:59:45;13.10;;;9.20;;
20976;SDS011;10647;51.016;3.720;2022-09-06T01:02:13;14.13;;;9.63;;
20976;SDS011;10647;51.016;3.720;2022-09-06T01:04:43;14.55;;;9.23;;
20976;SDS011;10647;51.016;3.720;2022-09-06T01:10:16;12.25;;;8.23;;
20976;SDS011;10647;51.016;3.720;2022-09-06T01:24:49;14.68;;;7.97;;
20976;SDS011;10647;51.016;3.720;2022-09-06T01:30:31;17.60;;;8.10;;
20976;SDS011;10647;51.016;3.720;2022-09-06T01:35:58;15.83;;;8.13;;
20976;SDS011;10647;51.016;3.720;2022-09-06T01:41:09;12.30;;;8.43;;
20976;SDS011;10647;51.016;3.720;2022-09-06T01:43:39;14.87;;;8.90;;
20976;SDS011;10647;51.016;3.720;2022-09-06T01:48:51;16.77;;;8.33;;
20976;SDS011;10647;51.016;3.720;2022-09-06T02:00:44;17.17;;;9.30;;
20976;SDS011;10647;51.016;3.720;2022-09-06T02:08:54;14.73;;;9.93;;
20976;SDS011;10647;51.016;3.720;2022-09-06T02:14:02;14.90;;;10.83;;
20976;SDS011;10647;51.016;3.720;2022-09-06T02:16:31;18.63;;;10.80;;
20976;SDS011;10647;51.016;3.720;2022-09-06T02:19:14;16.00;;;11.00;;
20976;SDS011;10647;51.016;3.720;2022-09-06T02:21:46;16.27;;;11.47;;
20976;SDS011;10647;51.016;3.720;2022-09-06T02:26:51;19.05;;;12.85;;
20976;SDS011;10647;51.016;3.720;2022-09-06T02:29:19;19.47;;;11.83;;
20976;SDS011;10647;51.016;3.720;2022-09-06T02:34:21;16.43;;;11.70;;
20976;SDS011;10647;51.016;3.720;2022-09-06T02:36:49;18.67;;;12.13;;
20976;SDS011;10647;51.016;3.720;2022-09-06T02:39:16;18.82;;;12.13;;
20976;SDS011;10647;51.016;3.720;2022-09-06T02:41:50;21.50;;;12.53;;
20976;SDS011;10647;51.016;3.720;2022-09-06T02:44:18;17.57;;;12.55;;
20976;SDS011;10647;51.016;3.720;2022-09-06T02:46:45;19.02;;;12.15;;
20976;SDS011;10647;51.016;3.720;2022-09-06T02:49:19;19.47;;;11.43;;
20976;SDS011;10647;51.016;3.720;2022-09-06T02:51:47;14.97;;;11.60;;
20976;SDS011;10647;51.016;3.720;2022-09-06T02:54:15;16.93;;;11.50;;
20976;SDS011;10647;51.016;3.720;2022-09-06T02:59:13;17.70;;;11.65;;
20976;SDS011;10647;51.016;3.720;2022-09-06T03:01:46;16.73;;;11.97;;
20976;SDS011;10647;51.016;3.720;2022-09-06T03:04:17;20.47;;;11.80;;
20976;SDS011;10647;51.016;3.720;2022-09-06T03:06:44;16.17;;;11.27;;
20976;SDS011;10647;51.016;3.720;2022-09-06T03:09:18;20.30;;;12.13;;
20976;SDS011;10647;51.016;3.720;2022-09-06T03:14:16;16.83;;;11.77;;
20976;SDS011;10647;51.016;3.720;2022-09-06T03:16:51;14.03;;;11.15;;
20976;SDS011;10647;51.016;3.720;2022-09-06T03:19:25;15.07;;;11.70;;
20976;SDS011;10647;51.016;3.720;2022-09-06T03:21:52;19.05;;;12.65;;
20976;SDS011;10647;51.016;3.720;2022-09-06T03:24:20;18.30;;;11.53;;
20976;SDS011;10647;51.016;3.720;2022-09-06T03:26:50;17.20;;;11.47;;
20976;SDS011;10647;51.016;3.720;2022-09-06T03:29:18;19.83;;;11.90;;
20976;SDS011;10647;51.016;3.720;2022-09-06T03:31:46;23.43;;;12.10;;
20976;SDS011;10647;51.016;3.720;2022-09-06T03:34:16;17.27;;;11.60;;
20976;SDS011;10647;51.016;3.720;2022-09-06T03:36:50;16.03;;;10.93;;
20976;SDS011;10647;51.016;3.720;2022-09-06T03:41:54;17.37;;;11.20;;
20976;SDS011;10647;51.016;3.720;2022-09-06T03:44:28;19.57;;;10.80;;
20976;SDS011;10647;51.016;3.720;2022-09-06T03:46:58;14.20;;;10.80;;
20976;SDS011;10647;51.016;3.720;2022-09-06T03:49:26;22.27;;;11.67;;
20976;SDS011;10647;51.016;3.720;2022-09-06T03:51:59;20.10;;;10.73;;
20976;SDS011;10647;51.016;3.720;2022-09-06T03:54:33;16.57;;;10.77;;
20976;SDS011;10647;51.016;3.720;2022-09-06T03:57:04;13.87;;;10.77;;
20976;SDS011;10647;51.016;3.720;2022-09-06T03:59:35;16.13;;;10.67;;
20976;SDS011;10647;51.016;3.720;2022-09-06T04:02:02;18.37;;;10.83;;
20976;SDS011;10647;51.016;3.720;2022-09-06T04:04:34;18.92;;;10.55;;
20976;SDS011;10647;51.016;3.720;2022-09-06T04:07:11;12.73;;;9.97;;
20976;SDS011;10647;51.016;3.720;2022-09-06T04:09:40;16.30;;;10.60;;
20976;SDS011;10647;51.016;3.720;2022-09-06T04:12:07;16.53;;;10.43;;
20976;SDS011;10647;51.016;3.720;2022-09-06T04:14:36;21.40;;;11.97;;
20976;SDS011;10647;51.016;3.720;2022-09-06T04:17:12;16.23;;;10.93;;
20976;SDS011;10647;51.016;3.720;2022-09-06T04:19:40;21.47;;;11.13;;
20976;SDS011;10647;51.016;3.720;2022-09-06T04:22:07;16.57;;;10.60;;
20976;SDS011;10647;51.016;3.720;2022-09-06T04:24:41;15.83;;;10.93;;
20976;SDS011;10647;51.016;3.720;2022-09-06T04:27:08;19.37;;;11.10;;
20976;SDS011;10647;51.016;3.720;2022-09-06T04:29:41;19.13;;;11.47;;
20976;SDS011;10647;51.016;3.720;2022-09-06T04:32:10;16.63;;;10.53;;
20976;SDS011;10647;51.016;3.720;2022-09-06T04:34:37;17.27;;;11.30;;
20976;SDS011;10647;51.016;3.720;2022-09-06T04:37:05;18.67;;;12.00;;
20976;SDS011;10647;51.016;3.720;2022-09-06T04:39:32;19.03;;;11.87;;
20976;SDS011;10647;51.016;3.720;2022-09-06T04:42:03;18.42;;;11.48;;
20976;SDS011;10647;51.016;3.720;2022-09-06T04:44:37;16.93;;;12.00;;
20976;SDS011;10647;51.016;3.720;2022-09-06T04:49:48;18.00;;;12.10;;
20976;SDS011;10647;51.016;3.720;2022-09-06T04:52:19;22.00;;;12.43;;
20976;SDS011;10647;51.016;3.720;2022-09-06T04:57:29;41.83;;;13.60;;
20976;SDS011;10647;51.016;3.720;2022-09-06T04:59:57;27.50;;;12.83;;
20976;SDS011;10647;51.016;3.720;2022-09-06T05:02:25;24.67;;;13.10;;
20976;SDS011;10647;51.016;3.720;2022-09-06T05:04:52;23.83;;;11.93;;
20976;SDS011;10647;51.016;3.720;2022-09-06T05:07:20;16.37;;;12.40;;
20976;SDS011;10647;51.016;3.720;2022-09-06T05:09:47;21.50;;;12.20;;
20976;SDS011;10647;51.016;3.720;2022-09-06T05:12:15;18.10;;;12.20;;
20976;SDS011;10647;51.016;3.720;2022-09-06T05:14:42;22.23;;;13.10;;
20976;SDS011;10647;51.016;3.720;2022-09-06T05:17:10;19.30;;;12.10;;
20976;SDS011;10647;51.016;3.720;2022-09-06T05:19:40;17.40;;;12.70;;
20976;SDS011;10647;51.016;3.720;2022-09-06T05:22:09;20.30;;;12.77;;
20976;SDS011;10647;51.016;3.720;2022-09-06T05:24:40;20.57;;;13.10;;
20976;SDS011;10647;51.016;3.720;2022-09-06T05:27:09;21.67;;;12.67;;
20976;SDS011;10647;51.016;3.720;2022-09-06T05:29:37;19.30;;;12.37;;
20976;SDS011;10647;51.016;3.720;2022-09-06T05:32:07;17.63;;;12.67;;
20976;SDS011;10647;51.016;3.720;2022-09-06T05:34:35;25.50;;;13.73;;
20976;SDS011;10647;51.016;3.720;2022-09-06T05:37:09;17.40;;;12.27;;
20976;SDS011;10647;51.016;3.720;2022-09-06T05:39:45;24.57;;;12.80;;
20976;SDS011;10647;51.016;3.720;2022-09-06T05:42:15;19.73;;;12.53;;
20976;SDS011;10647;51.016;3.720;2022-09-06T05:44:44;21.70;;;12.70;;
20976;SDS011;10647;51.016;3.720;2022-09-06T05:47:17;18.43;;;12.23;;
20976;SDS011;10647;51.016;3.720;2022-09-06T05:49:45;16.23;;;11.83;;
20976;SDS011;10647;51.016;3.720;2022-09-06T05:52:12;19.67;;;12.33;;
20976;SDS011;10647;51.016;3.720;2022-09-06T05:54:42;21.00;;;12.20;;
20976;SDS011;10647;51.016;3.720;2022-09-06T05:57:16;16.05;;;11.80;;
20976;SDS011;10647;51.016;3.720;2022-09-06T05:59:50;15.40;;;10.82;;
20976;SDS011;10647;51.016;3.720;2022-09-06T06:05:21;15.50;;;10.15;;
20976;SDS011;10647;51.016;3.720;2022-09-06T06:07:49;17.98;;;11.10;;
20976;SDS011;10647;51.016;3.720;2022-09-06T06:15:18;19.57;;;10.35;;
20976;SDS011;10647;51.016;3.720;2022-09-06T06:20:15;22.35;;;10.53;;
20976;SDS011;10647;51.016;3.720;2022-09-06T06:22:44;13.95;;;9.60;;
20976;SDS011;10647;51.016;3.720;2022-09-06T06:25:12;15.38;;;10.58;;
20976;SDS011;10647;51.016;3.720;2022-09-06T06:27:40;15.95;;;9.63;;
20976;SDS011;10647;51.016;3.720;2022-09-06T06:30:14;21.02;;;10.00;;
20976;SDS011;10647;51.016;3.720;2022-09-06T06:32:42;13.03;;;8.60;;
20976;SDS011;10647;51.016;3.720;2022-09-06T06:35:09;14.23;;;8.78;;
20976;SDS011;10647;51.016;3.720;2022-09-06T06:37:44;16.00;;;9.55;;
20976;SDS011;10647;51.016;3.720;2022-09-06T06:40:12;12.75;;;8.55;;
20976;SDS011;10647;51.016;3.720;2022-09-06T06:42:52;18.35;;;8.20;;
20976;SDS011;10647;51.016;3.720;2022-09-06T06:45:28;13.38;;;7.62;;
20976;SDS011;10647;51.016;3.720;2022-09-06T06:47:58;14.85;;;8.13;;
20976;SDS011;10647;51.016;3.720;2022-09-06T06:50:26;14.20;;;7.08;;
20976;SDS011;10647;51.016;3.720;2022-09-06T06:52:53;12.60;;;6.87;;
20976;SDS011;10647;51.016;3.720;2022-09-06T06:55:24;11.88;;;7.08;;
20976;SDS011;10647;51.016;3.720;2022-09-06T06:57:52;10.53;;;6.17;;
20976;SDS011;10647;51.016;3.720;2022-09-06T07:00:19;13.38;;;6.40;;
20976;SDS011;10647;51.016;3.720;2022-09-06T07:05:38;6.90;;;5.25;;
20976;SDS011;10647;51.016;3.720;2022-09-06T07:08:09;8.08;;;5.30;;
20976;SDS011;10647;51.016;3.720;2022-09-06T07:10:41;6.65;;;4.85;;
20976;SDS011;10647;51.016;3.720;2022-09-06T07:13:14;9.80;;;4.80;;
20976;SDS011;10647;51.016;3.720;2022-09-06T07:15:43;7.12;;;4.97;;
20976;SDS011;10647;51.016;3.720;2022-09-06T07:20:42;6.47;;;4.95;;
20976;SDS011;10647;51.016;3.720;2022-09-06T07:23:10;7.65;;;4.58;;
20976;SDS011;10647;51.016;3.720;2022-09-06T07:25:38;8.75;;;4.70;;
20976;SDS011;10647;51.016;3.720;2022-09-06T07:28:05;10.65;;;4.12;;
20976;SDS011;10647;51.016;3.720;2022-09-06T07:30:35;8.05;;;4.20;;
20976;SDS011;10647;51.016;3.720;2022-09-06T07:33:04;11.10;;;4.20;;
20976;SDS011;10647;51.016;3.720;2022-09-06T07:35:35;7.70;;;4.20;;
20976;SDS011;10647;51.016;3.720;2022-09-06T07:38:04;7.80;;;3.83;;
20976;SDS011;10647;51.016;3.720;2022-09-06T07:40:37;20.02;;;5.22;;
20976;SDS011;10647;51.016;3.720;2022-09-06T07:43:08;7.10;;;4.00;;
20976;SDS011;10647;51.016;3.720;2022-09-06T07:45:37;10.68;;;4.17;;
20976;SDS011;10647;51.016;3.720;2022-09-06T07:48:10;6.97;;;4.17;;
20976;SDS011;10647;51.016;3.720;2022-09-06T07:53:12;12.47;;;4.45;;
20976;SDS011;10647;51.016;3.720;2022-09-06T07:55:45;9.88;;;3.92;;
20976;SDS011;10647;51.016;3.720;2022-09-06T07:58:12;8.98;;;4.12;;
20976;SDS011;10647;51.016;3.720;2022-09-06T08:00:40;9.55;;;4.10;;
20976;SDS011;10647;51.016;3.720;2022-09-06T08:05:40;8.80;;;4.92;;
20976;SDS011;10647;51.016;3.720;2022-09-06T08:08:08;7.10;;;4.58;;
20976;SDS011;10647;51.016;3.720;2022-09-06T08:10:35;7.53;;;4.50;;
20976;SDS011;10647;51.016;3.720;2022-09-06T08:13:03;11.38;;;4.83;;
20976;SDS011;10647;51.016;3.720;2022-09-06T08:15:31;10.18;;;4.47;;
20976;SDS011;10647;51.016;3.720;2022-09-06T08:17:59;7.17;;;4.40;;
20976;SDS011;10647;51.016;3.720;2022-09-06T08:20:27;9.75;;;4.30;;
20976;SDS011;10647;51.016;3.720;2022-09-06T08:22:55;9.85;;;4.35;;
20976;SDS011;10647;51.016;3.720;2022-09-06T08:25:22;7.40;;;4.10;;
20976;SDS011;10647;51.016;3.720;2022-09-06T08:27:50;8.20;;;4.25;;
20976;SDS011;10647;51.016;3.720;2022-09-06T08:30:23;8.65;;;4.05;;
20976;SDS011;10647;51.016;3.720;2022-09-06T08:32:52;9.03;;;4.47;;
20976;SDS011;10647;51.016;3.720;2022-09-06T08:35:20;7.17;;;4.33;;
20976;SDS011;10647;51.016;3.720;2022-09-06T08:37:49;8.80;;;3.72;;
20976;SDS011;10647;51.016;3.720;2022-09-06T08:40:22;7.17;;;3.95;;
20976;SDS011;10647;51.016;3.720;2022-09-06T08:42:50;9.55;;;4.10;;
20976;SDS011;10647;51.016;3.720;2022-09-06T08:45:24;6.45;;;3.83;;
20976;SDS011;10647;51.016;3.720;2022-09-06T08:50:29;8.63;;;4.22;;
20976;SDS011;10647;51.016;3.720;2022-09-06T08:58:42;9.08;;;3.87;;
20976;SDS011;10647;51.016;3.720;2022-09-06T09:01:18;8.50;;;3.90;;
20976;SDS011;10647;51.016;3.720;2022-09-06T09:03:49;7.80;;;3.90;;
20976;SDS011;10647;51.016;3.720;2022-09-06T09:06:20;6.95;;;3.40;;
20976;SDS011;10647;51.016;3.720;2022-09-06T09:09:03;10.58;;;3.65;;
20976;SDS011;10647;51.016;3.720;2022-09-06T09:11:31;7.90;;;3.40;;
20976;SDS011;10647;51.016;3.720;2022-09-06T09:14:17;6.37;;;2.98;;
20976;SDS011;10647;51.016;3.720;2022-09-06T09:17:00;6.87;;;2.95;;
20976;SDS011;10647;51.016;3.720;2022-09-06T09:22:12;8.85;;;3.08;;
20976;SDS011;10647;51.016;3.720;2022-09-06T09:24:43;7.62;;;3.10;;
20976;SDS011;10647;51.016;3.720;2022-09-06T09:27:25;9.88;;;3.40;;
20976;SDS011;10647;51.016;3.720;2022-09-06T09:30:01;7.67;;;3.42;;
20976;SDS011;10647;51.016;3.720;2022-09-06T09:32:35;7.20;;;3.33;;
20976;SDS011;10647;51.016;3.720;2022-09-06T09:38:01;8.88;;;3.42;;
20976;SDS011;10647;51.016;3.720;2022-09-06T09:40:38;5.22;;;3.17;;
20976;SDS011;10647;51.016;3.720;2022-09-06T09:43:20;7.45;;;3.15;;
20976;SDS011;10647;51.016;3.720;2022-09-06T09:51:38;5.00;;;2.72;;
20976;SDS011;10647;51.016;3.720;2022-09-06T09:54:14;5.70;;;2.62;;
20976;SDS011;10647;51.016;3.720;2022-09-06T09:56:43;5.85;;;2.50;;
20976;SDS011;10647;51.016;3.720;2022-09-06T10:01:50;5.67;;;3.27;;
20976;SDS011;10647;51.016;3.720;2022-09-06T10:07:33;6.20;;;2.65;;
20976;SDS011;10647;51.016;3.720;2022-09-06T10:09:40;7.80;;;3.30;;
20976;SDS011;10647;51.016;3.720;2022-09-06T10:12:27;10.23;;;2.92;;
20976;SDS011;10647;51.016;3.720;2022-09-06T10:14:56;6.75;;;2.45;;
20976;SDS011;10647;51.016;3.720;2022-09-06T10:17:29;8.98;;;3.33;;
20976;SDS011;10647;51.016;3.720;2022-09-06T10:20:05;8.48;;;2.85;;
20976;SDS011;10647;51.016;3.720;2022-09-06T10:25:23;7.92;;;2.65;;
20976;SDS011;10647;51.016;3.720;2022-09-06T10:28:19;4.55;;;2.10;;
20976;SDS011;10647;51.016;3.720;2022-09-06T10:30:53;7.03;;;3.00;;
20976;SDS011;10647;51.016;3.720;2022-09-06T10:33:25;5.65;;;2.20;;
20976;SDS011;10647;51.016;3.720;2022-09-06T10:35:55;8.70;;;2.92;;
20976;SDS011;10647;51.016;3.720;2022-09-06T10:38:30;9.05;;;2.62;;
20976;SDS011;10647;51.016;3.720;2022-09-06T10:41:23;8.38;;;2.80;;
20976;SDS011;10647;51.016;3.720;2022-09-06T10:46:57;6.75;;;2.52;;
20976;SDS011;10647;51.016;3.720;2022-09-06T10:49:36;6.33;;;2.60;;
20976;SDS011;10647;51.016;3.720;2022-09-06T10:52:10;28.30;;;3.92;;
20976;SDS011;10647;51.016;3.720;2022-09-06T10:54:42;9.45;;;2.45;;
20976;SDS011;10647;51.016;3.720;2022-09-06T10:57:19;6.65;;;2.62;;
20976;SDS011;10647;51.016;3.720;2022-09-06T11:00:01;6.53;;;2.60;;
20976;SDS011;10647;51.016;3.720;2022-09-06T11:02:45;10.75;;;2.65;;
20976;SDS011;10647;51.016;3.720;2022-09-06T11:05:23;5.78;;;2.33;;
20976;SDS011;10647;51.016;3.720;2022-09-06T11:08:04;5.15;;;2.27;;
20976;SDS011;10647;51.016;3.720;2022-09-06T11:10:30;6.55;;;2.08;;
20976;SDS011;10647;51.016;3.720;2022-09-06T11:15:53;4.92;;;1.50;;
20976;SDS011;10647;51.016;3.720;2022-09-06T11:18:38;3.67;;;1.60;;
20976;SDS011;10647;51.016;3.720;2022-09-06T11:24:14;6.58;;;1.70;;
20976;SDS011;10647;51.016;3.720;2022-09-06T11:29:58;5.95;;;1.50;;
20976;SDS011;10647;51.016;3.720;2022-09-06T11:35:09;3.30;;;1.62;;
20976;SDS011;10647;51.016;3.720;2022-09-06T11:37:57;4.72;;;1.47;;
20976;SDS011;10647;51.016;3.720;2022-09-06T11:40:28;5.10;;;1.30;;
20976;SDS011;10647;51.016;3.720;2022-09-06T11:45:46;5.37;;;2.00;;
20976;SDS011;10647;51.016;3.720;2022-09-06T11:48:31;8.45;;;1.82;;
20976;SDS011;10647;51.016;3.720;2022-09-06T11:51:02;6.72;;;1.70;;
20976;SDS011;10647;51.016;3.720;2022-09-06T11:54:21;6.03;;;1.90;;
20976;SDS011;10647;51.016;3.720;2022-09-06T11:56:33;5.70;;;1.95;;
20976;SDS011;10647;51.016;3.720;2022-09-06T11:59:25;3.40;;;1.50;;
20976;SDS011;10647;51.016;3.720;2022-09-06T12:07:11;5.83;;;1.70;;
20976;SDS011;10647;51.016;3.720;2022-09-06T12:09:43;4.42;;;1.40;;
20976;SDS011;10647;51.016;3.720;2022-09-06T12:12:11;7.53;;;1.85;;
20976;SDS011;10647;51.016;3.720;2022-09-06T12:14:47;5.40;;;1.32;;
20976;SDS011;10647;51.016;3.720;2022-09-06T12:17:21;6.25;;;2.00;;
20976;SDS011;10647;51.016;3.720;2022-09-06T12:19:51;5.28;;;1.57;;
20976;SDS011;10647;51.016;3.720;2022-09-06T12:27:56;6.25;;;1.60;;
20976;SDS011;10647;51.016;3.720;2022-09-06T12:38:59;6.33;;;1.50;;
20976;SDS011;10647;51.016;3.720;2022-09-06T12:41:29;3.17;;;1.60;;
20976;SDS011;10647;51.016;3.720;2022-09-06T12:43:59;6.03;;;1.40;;
20976;SDS011;10647;51.016;3.720;2022-09-06T12:51:40;4.58;;;1.25;;
20976;SDS011;10647;51.016;3.720;2022-09-06T12:54:21;4.05;;;1.35;;
20976;SDS011;10647;51.016;3.720;2022-09-06T12:59:55;10.63;;;1.60;;
20976;SDS011;10647;51.016;3.720;2022-09-06T13:02:20;14.47;;;2.30;;
20976;SDS011;10647;51.016;3.720;2022-09-06T13:04:49;10.32;;;1.82;;
20976;SDS011;10647;51.016;3.720;2022-09-06T13:07:22;7.37;;;1.12;;
20976;SDS011;10647;51.016;3.720;2022-09-06T13:09:52;2.90;;;1.05;;
20976;SDS011;10647;51.016;3.720;2022-09-06T13:12:36;3.55;;;0.93;;
20976;SDS011;10647;51.016;3.720;2022-09-06T13:17:50;3.27;;;1.00;;
20976;SDS011;10647;51.016;3.720;2022-09-06T13:20:29;5.90;;;1.10;;
20976;SDS011;10647;51.016;3.720;2022-09-06T13:23:06;6.55;;;1.07;;
20976;SDS011;10647;51.016;3.720;2022-09-06T13:25:56;3.22;;;1.12;;
20976;SDS011;10647;51.016;3.720;2022-09-06T13:28:42;3.65;;;1.10;;
20976;SDS011;10647;51.016;3.720;2022-09-06T13:31:28;5.28;;;1.07;;
20976;SDS011;10647;51.016;3.720;2022-09-06T13:36:30;2.02;;;1.10;;
20976;SDS011;10647;51.016;3.720;2022-09-06T13:38:59;2.60;;;1.02;;
20976;SDS011;10647;51.016;3.720;2022-09-06T13:41:39;3.70;;;1.25;;
20976;SDS011;10647;51.016;3.720;2022-09-06T13:46:59;4.65;;;1.20;;
20976;SDS011;10647;51.016;3.720;2022-09-06T13:49:27;2.27;;;1.00;;
20976;SDS011;10647;51.016;3.720;2022-09-06T13:52:01;3.85;;;1.07;;
20976;SDS011;10647;51.016;3.720;2022-09-06T13:54:37;5.65;;;1.17;;
20976;SDS011;10647;51.016;3.720;2022-09-06T13:57:10;5.30;;;0.98;;
20976;SDS011;10647;51.016;3.720;2022-09-06T13:59:38;15.20;;;2.12;;
20976;SDS011;10647;51.016;3.720;2022-09-06T14:02:07;3.95;;;1.27;;
20976;SDS011;10647;51.016;3.720;2022-09-06T14:04:37;12.53;;;1.22;;
20976;SDS011;10647;51.016;3.720;2022-09-06T14:07:08;4.03;;;1.10;;
20976;SDS011;10647;51.016;3.720;2022-09-06T14:09:36;4.78;;;1.20;;
20976;SDS011;10647;51.016;3.720;2022-09-06T14:12:04;4.85;;;1.35;;
20976;SDS011;10647;51.016;3.720;2022-09-06T14:14:37;5.17;;;1.22;;
20976;SDS011;10647;51.016;3.720;2022-09-06T14:17:11;2.60;;;0.90;;
20976;SDS011;10647;51.016;3.720;2022-09-06T14:19:40;4.78;;;1.20;;
20976;SDS011;10647;51.016;3.720;2022-09-06T14:22:07;5.17;;;1.30;;
20976;SDS011;10647;51.016;3.720;2022-09-06T14:24:48;12.30;;;1.55;;
20976;SDS011;10647;51.016;3.720;2022-09-06T14:29:56;3.55;;;1.10;;
20976;SDS011;10647;51.016;3.720;2022-09-06T14:32:23;2.10;;;0.80;;
20976;SDS011;10647;51.016;3.720;2022-09-06T14:34:54;6.65;;;1.20;;
20976;SDS011;10647;51.016;3.720;2022-09-06T14:37:25;2.95;;;1.10;;
20976;SDS011;10647;51.016;3.720;2022-09-06T14:39:52;3.75;;;1.05;;
20976;SDS011;10647;51.016;3.720;2022-09-06T14:44:56;7.20;;;1.40;;
20976;SDS011;10647;51.016;3.720;2022-09-06T14:47:23;8.18;;;1.27;;
20976;SDS011;10647;51.016;3.720;2022-09-06T14:49:54;4.92;;;1.07;;
20976;SDS011;10647;51.016;3.720;2022-09-06T14:52:22;2.10;;;1.10;;
20976;SDS011;10647;51.016;3.720;2022-09-06T14:54:55;2.98;;;1.02;;
20976;SDS011;10647;51.016;3.720;2022-09-06T14:57:23;6.37;;;1.00;;
20976;SDS011;10647;51.016;3.720;2022-09-06T14:59:50;4.95;;;1.30;;
20976;SDS011;10647;51.016;3.720;2022-09-06T15:02:21;4.15;;;0.90;;
20976;SDS011;10647;51.016;3.720;2022-09-06T15:04:58;4.50;;;1.17;;
20976;SDS011;10647;51.016;3.720;2022-09-06T15:07:26;3.05;;;1.00;;
20976;SDS011;10647;51.016;3.720;2022-09-06T15:09:53;6.50;;;1.50;;
20976;SDS011;10647;51.016;3.720;2022-09-06T15:12:21;3.40;;;1.10;;
20976;SDS011;10647;51.016;3.720;2022-09-06T15:14:49;22.85;;;2.65;;
20976;SDS011;10647;51.016;3.720;2022-09-06T15:17:16;5.10;;;1.20;;
20976;SDS011;10647;51.016;3.720;2022-09-06T15:19:48;6.95;;;1.00;;
20976;SDS011;10647;51.016;3.720;2022-09-06T15:22:15;7.60;;;1.17;;
20976;SDS011;10647;51.016;3.720;2022-09-06T15:24:43;3.50;;;1.47;;
20976;SDS011;10647;51.016;3.720;2022-09-06T15:27:10;3.05;;;0.98;;
20976;SDS011;10647;51.016;3.720;2022-09-06T15:29:38;2.92;;;1.50;;
20976;SDS011;10647;51.016;3.720;2022-09-06T15:32:05;6.90;;;1.60;;
20976;SDS011;10647;51.016;3.720;2022-09-06T15:34:33;3.70;;;0.98;;
20976;SDS011;10647;51.016;3.720;2022-09-06T15:39:47;5.85;;;1.15;;
20976;SDS011;10647;51.016;3.720;2022-09-06T15:42:15;2.42;;;1.20;;
20976;SDS011;10647;51.016;3.720;2022-09-06T15:44:42;2.40;;;0.90;;
20976;SDS011;10647;51.016;3.720;2022-09-06T15:47:10;8.95;;;1.40;;
20976;SDS011;10647;51.016;3.720;2022-09-06T15:49:37;4.30;;;1.20;;
20976;SDS011;10647;51.016;3.720;2022-09-06T15:52:05;5.80;;;1.00;;
20976;SDS011;10647;51.016;3.720;2022-09-06T15:54:34;3.10;;;1.15;;
20976;SDS011;10647;51.016;3.720;2022-09-06T15:57:19;5.65;;;1.25;;
20976;SDS011;10647;51.016;3.720;2022-09-06T15:59:47;5.15;;;1.15;;
20976;SDS011;10647;51.016;3.720;2022-09-06T16:02:14;4.67;;;1.00;;
20976;SDS011;10647;51.016;3.720;2022-09-06T16:04:42;3.45;;;1.00;;
20976;SDS011;10647;51.016;3.720;2022-09-06T16:07:10;2.75;;;0.90;;
20976;SDS011;10647;51.016;3.720;2022-09-06T16:09:38;2.30;;;0.90;;
20976;SDS011;10647;51.016;3.720;2022-09-06T16:12:06;5.50;;;1.02;;
20976;SDS011;10647;51.016;3.720;2022-09-06T16:14:34;4.17;;;0.98;;
20976;SDS011;10647;51.016;3.720;2022-09-06T16:17:02;5.62;;;1.00;;
20976;SDS011;10647;51.016;3.720;2022-09-06T16:19:30;4.22;;;1.00;;
20976;SDS011;10647;51.016;3.720;2022-09-06T16:21:57;5.45;;;0.93;;
20976;SDS011;10647;51.016;3.720;2022-09-06T16:24:25;5.33;;;1.00;;
20976;SDS011;10647;51.016;3.720;2022-09-06T16:26:53;4.25;;;1.07;;
20976;SDS011;10647;51.016;3.720;2022-09-06T16:29:21;7.80;;;1.02;;
20976;SDS011;10647;51.016;3.720;2022-09-06T16:31:48;7.35;;;1.10;;
20976;SDS011;10647;51.016;3.720;2022-09-06T16:34:18;3.52;;;1.00;;
20976;SDS011;10647;51.016;3.720;2022-09-06T16:36:45;2.72;;;0.85;;
20976;SDS011;10647;51.016;3.720;2022-09-06T16:39:14;4.75;;;1.20;;
20976;SDS011;10647;51.016;3.720;2022-09-06T16:41:43;3.40;;;0.95;;
20976;SDS011;10647;51.016;3.720;2022-09-06T16:44:12;6.03;;;1.15;;
20976;SDS011;10647;51.016;3.720;2022-09-06T16:46:41;4.62;;;1.00;;
20976;SDS011;10647;51.016;3.720;2022-09-06T16:49:14;2.75;;;1.10;;
20976;SDS011;10647;51.016;3.720;2022-09-06T16:51:42;2.08;;;0.90;;
20976;SDS011;10647;51.016;3.720;2022-09-06T16:54:11;7.12;;;1.42;;
20976;SDS011;10647;51.016;3.720;2022-09-06T16:56:40;3.75;;;1.20;;
20976;SDS011;10647;51.016;3.720;2022-09-06T16:59:08;5.10;;;1.57;;
20976;SDS011;10647;51.016;3.720;2022-09-06T17:01:37;4.45;;;1.10;;
20976;SDS011;10647;51.016;3.720;2022-09-06T17:04:09;4.42;;;1.30;;
20976;SDS011;10647;51.016;3.720;2022-09-06T17:06:37;4.80;;;1.40;;
20976;SDS011;10647;51.016;3.720;2022-09-06T17:09:07;5.85;;;1.40;;
20976;SDS011;10647;51.016;3.720;2022-09-06T17:11:34;5.80;;;1.30;;
20976;SDS011;10647;51.016;3.720;2022-09-06T17:14:04;5.75;;;1.47;;
20976;SDS011;10647;51.016;3.720;2022-09-06T17:16:32;6.55;;;1.25;;
20976;SDS011;10647;51.016;3.720;2022-09-06T17:19:17;7.45;;;1.60;;
20976;SDS011;10647;51.016;3.720;2022-09-06T17:21:45;3.62;;;1.20;;
20976;SDS011;10647;51.016;3.720;2022-09-06T17:24:13;4.47;;;1.55;;
20976;SDS011;10647;51.016;3.720;2022-09-06T17:26:41;2.98;;;1.22;;
20976;SDS011;10647;51.016;3.720;2022-09-06T17:29:08;6.45;;;1.10;;
20976;SDS011;10647;51.016;3.720;2022-09-06T17:31:36;3.08;;;1.27;;
20976;SDS011;10647;51.016;3.720;2022-09-06T17:34:04;4.15;;;1.27;;
20976;SDS011;10647;51.016;3.720;2022-09-06T17:36:35;4.78;;;1.22;;
20976;SDS011;10647;51.016;3.720;2022-09-06T17:39:04;5.60;;;1.30;;
20976;SDS011;10647;51.016;3.720;2022-09-06T17:41:34;3.45;;;1.10;;
20976;SDS011;10647;51.016;3.720;2022-09-06T17:44:10;5.70;;;1.35;;
20976;SDS011;10647;51.016;3.720;2022-09-06T17:46:41;4.83;;;1.40;;
20976;SDS011;10647;51.016;3.720;2022-09-06T17:49:09;5.72;;;1.47;;
20976;SDS011;10647;51.016;3.720;2022-09-06T17:51:37;5.28;;;1.40;;
20976;SDS011;10647;51.016;3.720;2022-09-06T17:54:05;3.25;;;1.27;;
20976;SDS011;10647;51.016;3.720;2022-09-06T17:56:35;3.00;;;1.32;;